createdAt,value
2023-04-18T00:00:38.214Z,78.99
2023-04-18T00:01:38.346Z,78.55
2023-04-18T00:02:38.558Z,79.64
2023-04-18T00:03:38.617Z,77.65
2023-04-18T00:04:38.671Z,76.60
2023-04-18T00:05:38.588Z,79.07
2023-04-18T00:06:38.639Z,78.00
2023-04-18T00:07:39.503Z,80.03
2023-04-18T00:08:38.789Z,77.66
2023-04-18T00:09:38.888Z,78.07
2023-04-18T00:10:38.934Z,77.47
2023-04-18T00:11:39.018Z,79.73
2023-04-18T00:12:39.066Z,79.66
2023-04-18T00:13:39.137Z,77.95
2023-04-18T00:14:39.195Z,76.70
2023-04-18T00:15:39.259Z,77.72
2023-04-18T00:16:39.383Z,77.06
2023-04-18T00:17:39.421Z,77.77
2023-04-18T00:18:39.463Z,78.25
2023-04-18T00:19:39.571Z,76.11
2023-04-18T00:20:39.585Z,77.56
2023-04-18T00:21:39.655Z,77.09
2023-04-18T00:22:39.722Z,75.99
2023-04-18T00:23:39.830Z,77.20
2023-04-18T00:24:39.869Z,75.34
2023-04-18T00:25:40.010Z,74.86
2023-04-18T00:26:39.991Z,77.62
2023-04-18T00:27:40.074Z,75.88
2023-04-18T00:28:40.147Z,76.41
2023-04-18T00:29:40.504Z,77.22
2023-04-18T00:30:40.313Z,73.82
2023-04-18T00:31:40.351Z,74.82
2023-04-18T00:32:40.455Z,76.34
2023-04-18T00:33:40.996Z,74.10
2023-04-18T00:34:40.586Z,74.55
2023-04-18T00:35:40.716Z,74.55
2023-04-18T00:36:40.697Z,73.49
2023-04-18T00:37:40.793Z,74.05
2023-04-18T00:38:40.852Z,72.99
2023-04-18T00:39:40.980Z,76.81
2023-04-18T00:40:40.969Z,75.77
2023-04-18T00:41:41.029Z,74.27
2023-04-18T00:42:41.106Z,73.61
2023-04-18T00:43:41.174Z,73.97
2023-04-18T00:44:41.249Z,73.98
2023-04-18T00:45:41.334Z,73.34
2023-04-18T00:46:41.481Z,73.92
2023-04-18T00:47:41.595Z,73.66
2023-04-18T00:48:42.009Z,73.64
2023-04-18T00:49:41.612Z,72.45
2023-04-18T00:50:41.719Z,73.58
2023-04-18T00:51:41.743Z,72.67
2023-04-18T00:52:41.810Z,72.19
2023-04-18T00:53:41.882Z,71.35
2023-04-18T00:54:41.953Z,72.54
2023-04-18T00:55:42.012Z,72.77
2023-04-18T00:56:42.091Z,73.15
2023-04-18T00:57:42.224Z,72.40
2023-04-18T00:58:43.015Z,70.94
2023-04-18T00:59:42.300Z,71.38
2023-04-18T01:00:42.374Z,72.22
2023-04-18T01:01:42.433Z,69.87
2023-04-18T01:02:42.672Z,72.66
2023-04-18T01:03:42.791Z,72.20
2023-04-18T01:04:42.826Z,70.45
2023-04-18T01:05:42.732Z,72.17
2023-04-18T01:06:42.784Z,73.17
2023-04-18T01:07:42.847Z,69.62
2023-04-18T01:08:42.923Z,70.58
2023-04-18T01:09:43.013Z,72.72
2023-04-18T01:10:43.071Z,69.54
2023-04-18T01:11:43.148Z,72.41
2023-04-18T01:12:43.257Z,70.53
2023-04-18T01:13:43.318Z,71.79
2023-04-18T01:14:43.385Z,71.41
2023-04-18T01:15:43.624Z,71.64
2023-04-18T01:16:43.541Z,69.80
2023-04-18T01:17:43.639Z,69.63
2023-04-18T01:18:43.680Z,68.15
2023-04-18T01:19:43.752Z,72.32
2023-04-18T01:20:43.839Z,71.21
2023-04-18T01:21:43.989Z,72.25
2023-04-18T01:22:44.028Z,69.77
2023-04-18T01:23:44.050Z,68.66
2023-04-18T01:24:44.127Z,70.63
2023-04-18T01:25:44.187Z,68.71
2023-04-18T01:26:44.233Z,67.96
2023-04-18T01:27:44.310Z,72.00
2023-04-18T01:28:44.414Z,67.73
2023-04-18T01:29:44.467Z,69.11
2023-04-18T01:30:44.544Z,68.17
2023-04-18T01:31:44.674Z,68.86
2023-04-18T01:32:44.714Z,69.11
2023-04-18T01:33:44.734Z,67.27
2023-04-18T01:34:44.792Z,67.07
2023-04-18T01:35:44.881Z,67.52
2023-04-18T01:36:44.926Z,70.13
2023-04-18T01:37:45.015Z,69.59
2023-04-18T01:38:45.073Z,68.93
2023-04-18T01:39:45.174Z,70.08
2023-04-18T01:40:45.229Z,68.64
2023-04-18T01:41:45.306Z,67.93
2023-04-18T01:42:45.456Z,67.46
2023-04-18T01:43:45.457Z,65.79
2023-04-18T01:44:45.551Z,66.53
2023-04-18T01:45:45.653Z,66.16
2023-04-18T01:46:45.734Z,66.17
2023-04-18T01:47:46.578Z,69.74
2023-04-18T01:48:45.910Z,67.49
2023-04-18T01:49:46.050Z,66.98
2023-04-18T01:50:46.131Z,69.39
2023-04-18T01:51:46.170Z,67.71
2023-04-18T01:52:46.260Z,67.23
2023-04-18T01:53:46.343Z,68.21
2023-04-18T01:54:46.438Z,66.51
2023-04-18T01:55:46.605Z,64.69
2023-04-18T01:56:46.618Z,66.01
2023-04-18T01:57:46.708Z,65.45
2023-04-18T01:58:46.794Z,65.35
2023-04-18T01:59:46.875Z,65.53
2023-04-18T02:00:47.020Z,65.62
2023-04-18T02:01:47.074Z,65.66
2023-04-18T02:02:47.187Z,68.17
2023-04-18T02:03:47.404Z,66.35
2023-04-18T02:04:47.304Z,65.01
2023-04-18T02:05:47.375Z,64.42
2023-04-18T02:06:47.463Z,67.21
2023-04-18T02:07:47.537Z,64.24
2023-04-18T02:08:47.629Z,65.23
2023-04-18T02:09:47.725Z,63.53
2023-04-18T02:10:48.537Z,63.68
2023-04-18T02:11:47.898Z,66.80
2023-04-18T02:12:47.983Z,65.13
2023-04-18T02:13:48.075Z,64.45
2023-04-18T02:14:48.168Z,64.65
2023-04-18T02:15:48.260Z,66.27
2023-04-18T02:16:48.408Z,64.41
2023-04-18T02:17:48.448Z,65.59
2023-04-18T02:18:48.482Z,64.46
2023-04-18T02:19:48.556Z,63.86
2023-04-18T02:20:48.643Z,65.25
2023-04-18T02:21:48.721Z,63.61
2023-04-18T02:22:48.800Z,65.05
2023-04-18T02:23:48.905Z,62.83
2023-04-18T02:24:48.985Z,63.47
2023-04-18T02:25:49.098Z,63.44
2023-04-18T02:26:49.152Z,64.20
2023-04-18T02:27:49.245Z,62.56
2023-04-18T02:28:49.326Z,63.98
2023-04-18T02:29:49.390Z,62.87
2023-04-18T02:30:49.485Z,62.55
2023-04-18T02:31:49.553Z,61.23
2023-04-18T02:32:49.691Z,62.11
2023-04-18T02:33:49.682Z,61.83
2023-04-18T02:34:49.763Z,63.11
2023-04-18T02:35:49.854Z,63.86
2023-04-18T02:36:50.062Z,64.78
2023-04-18T02:37:50.545Z,63.29
2023-04-18T02:38:50.110Z,61.65
2023-04-18T02:39:50.285Z,60.15
2023-04-18T02:40:50.276Z,61.21
2023-04-18T02:41:50.370Z,62.36
2023-04-18T02:42:50.464Z,63.57
2023-04-18T02:43:50.547Z,62.97
2023-04-18T02:44:50.620Z,62.08
2023-04-18T02:45:50.744Z,58.91
2023-04-18T02:46:51.554Z,61.07
2023-04-18T02:47:55.557Z,63.11
2023-04-18T02:48:51.906Z,63.20
2023-04-18T02:49:50.930Z,63.30
2023-04-18T02:50:50.937Z,63.42
2023-04-18T02:51:50.958Z,61.52
2023-04-18T02:52:50.952Z,59.78
2023-04-18T02:53:51.045Z,60.78
2023-04-18T02:54:50.989Z,61.25
2023-04-18T02:55:51.011Z,61.27
2023-04-18T02:56:51.024Z,60.67
2023-04-18T02:57:51.073Z,61.97
2023-04-18T02:58:51.145Z,60.69
2023-04-18T02:59:51.221Z,60.61
2023-04-18T03:00:51.311Z,60.27
2023-04-18T03:01:51.404Z,59.54
2023-04-18T03:02:51.535Z,58.36
2023-04-18T03:03:51.625Z,60.16
2023-04-18T03:04:51.682Z,61.73
2023-04-18T03:05:51.736Z,59.33
2023-04-18T03:06:51.821Z,59.02
2023-04-18T03:07:51.975Z,58.08
2023-04-18T03:08:51.979Z,60.37
2023-04-18T03:09:52.585Z,57.68
2023-04-18T03:10:52.157Z,57.82
2023-04-18T03:11:52.240Z,57.87
2023-04-18T03:12:52.317Z,58.99
2023-04-18T03:13:52.409Z,57.31
2023-04-18T03:14:52.473Z,58.35
2023-04-18T03:15:52.604Z,56.25
2023-04-18T03:16:55.417Z,60.33
2023-04-18T03:17:52.733Z,58.86
2023-04-18T03:18:52.662Z,59.09
2023-04-18T03:19:52.757Z,57.14
2023-04-18T03:20:52.699Z,55.51
2023-04-18T03:21:52.732Z,58.93
2023-04-18T03:22:52.716Z,57.33
2023-04-18T03:23:52.730Z,57.40
2023-04-18T03:24:52.753Z,56.59
2023-04-18T03:25:52.772Z,56.54
2023-04-18T03:26:52.797Z,55.23
2023-04-18T03:27:53.568Z,57.02
2023-04-18T03:28:52.817Z,57.46
2023-04-18T03:29:52.842Z,56.90
2023-04-18T03:30:52.913Z,55.60
2023-04-18T03:31:52.862Z,55.77
2023-04-18T03:32:53.028Z,57.93
2023-04-18T03:33:52.911Z,57.27
2023-04-18T03:34:52.931Z,56.60
2023-04-18T03:35:52.956Z,55.30
2023-04-18T03:36:52.973Z,54.02
2023-04-18T03:37:52.996Z,57.07
2023-04-18T03:38:53.016Z,55.61
2023-04-18T03:39:53.090Z,55.82
2023-04-18T03:40:53.052Z,53.57
2023-04-18T03:41:53.073Z,57.09
2023-04-18T03:42:53.093Z,53.59
2023-04-18T03:43:53.102Z,55.94
2023-04-18T03:44:53.149Z,55.54
2023-04-18T03:45:53.262Z,55.12
2023-04-18T03:46:53.162Z,54.44
2023-04-18T03:47:53.191Z,53.54
2023-04-18T03:48:53.192Z,54.63
2023-04-18T03:49:53.230Z,54.35
2023-04-18T03:50:53.240Z,53.99
2023-04-18T03:51:53.253Z,53.96
2023-04-18T03:52:53.285Z,56.75
2023-04-18T03:53:53.276Z,54.29
2023-04-18T03:54:53.299Z,56.09
2023-04-18T03:55:53.322Z,53.27
2023-04-18T03:56:53.402Z,54.92
2023-04-18T03:57:53.474Z,52.63
2023-04-18T03:58:54.081Z,53.89
2023-04-18T03:59:53.627Z,54.80
2023-04-18T04:00:53.716Z,54.20
2023-04-18T04:01:53.827Z,53.35
2023-04-18T04:02:54.035Z,53.55
2023-04-18T04:03:54.003Z,53.09
2023-04-18T04:04:54.044Z,52.07
2023-04-18T04:05:54.088Z,54.85
2023-04-18T04:06:54.187Z,53.09
2023-04-18T04:07:54.238Z,51.24
2023-04-18T04:08:54.312Z,52.82
2023-04-18T04:09:54.396Z,53.90
2023-04-18T04:10:54.529Z,52.67
2023-04-18T04:11:54.526Z,52.51
2023-04-18T04:12:54.609Z,52.57
2023-04-18T04:13:54.695Z,52.78
2023-04-18T04:14:55.788Z,53.22
2023-04-18T04:15:54.857Z,52.93
2023-04-18T04:16:54.918Z,50.74
2023-04-18T04:17:55.009Z,52.40
2023-04-18T04:18:55.098Z,49.95
2023-04-18T04:19:55.142Z,50.30
2023-04-18T04:20:55.231Z,52.56
2023-04-18T04:21:55.309Z,51.32
2023-04-18T04:22:55.381Z,52.26
2023-04-18T04:23:55.464Z,50.93
2023-04-18T04:24:55.528Z,51.73
2023-04-18T04:25:55.607Z,50.00
2023-04-18T04:26:55.696Z,49.06
2023-04-18T04:27:55.728Z,49.20
2023-04-18T04:28:55.804Z,51.73
2023-04-18T04:29:56.631Z,48.72
2023-04-18T04:30:55.940Z,50.88
2023-04-18T04:31:56.050Z,51.21
2023-04-18T04:32:56.091Z,49.98
2023-04-18T04:33:56.156Z,51.29
2023-04-18T04:34:56.238Z,51.57
2023-04-18T04:35:56.314Z,50.10
2023-04-18T04:36:56.376Z,49.57
2023-04-18T04:37:56.460Z,47.46
2023-04-18T04:38:56.525Z,51.86
2023-04-18T04:39:57.547Z,51.98
2023-04-18T04:40:56.559Z,50.28
2023-04-18T04:41:56.576Z,50.75
2023-04-18T04:42:57.099Z,48.80
2023-04-18T04:43:56.601Z,48.59
2023-04-18T04:44:56.743Z,49.96
2023-04-18T04:45:56.649Z,50.15
2023-04-18T04:46:56.658Z,49.99
2023-04-18T04:47:56.789Z,48.89
2023-04-18T04:48:56.692Z,49.70
2023-04-18T04:49:56.711Z,47.86
2023-04-18T04:50:56.749Z,48.35
2023-04-18T04:51:56.815Z,47.03
2023-04-18T04:52:57.103Z,48.48
2023-04-18T04:53:56.951Z,48.74
2023-04-18T04:54:57.023Z,46.50
2023-04-18T04:55:57.100Z,50.09
2023-04-18T04:56:57.171Z,50.62
2023-04-18T04:57:57.244Z,47.04
2023-04-18T04:58:57.308Z,47.22
2023-04-18T04:59:57.400Z,47.67
2023-04-18T05:00:57.491Z,46.11
2023-04-18T05:01:57.563Z,48.21
2023-04-18T05:02:57.709Z,47.42
2023-04-18T05:03:57.778Z,47.90
2023-04-18T05:04:57.729Z,46.17
2023-04-18T05:05:57.807Z,45.75
2023-04-18T05:06:57.884Z,46.86
2023-04-18T05:07:57.945Z,45.88
2023-04-18T05:08:58.030Z,47.38
2023-04-18T05:09:58.110Z,45.69
2023-04-18T05:10:59.113Z,45.12
2023-04-18T05:11:58.256Z,46.29
2023-04-18T05:12:58.331Z,47.38
2023-04-18T05:13:58.398Z,47.71
2023-04-18T05:14:58.480Z,47.29
2023-04-18T05:15:58.621Z,45.35
2023-04-18T05:16:58.659Z,44.73
2023-04-18T05:17:58.739Z,47.02
2023-04-18T05:18:58.776Z,46.03
2023-04-18T05:19:58.844Z,46.13
2023-04-18T05:20:58.914Z,45.77
2023-04-18T05:21:58.987Z,43.20
2023-04-18T05:22:59.161Z,42.86
2023-04-18T05:23:59.129Z,44.85
2023-04-18T05:24:59.209Z,45.92
2023-04-18T05:25:59.519Z,48.21
2023-04-18T05:26:59.380Z,57.27
2023-04-18T05:27:59.417Z,63.95
2023-04-18T05:28:59.481Z,67.90
2023-04-18T05:29:59.525Z,72.79
2023-04-18T05:31:00.179Z,76.57
2023-04-18T05:31:59.590Z,84.05
2023-04-18T05:32:59.656Z,91.00
2023-04-18T05:33:59.669Z,104.56
2023-04-18T05:34:59.697Z,121.16
2023-04-18T05:35:59.761Z,133.90
2023-04-18T05:37:00.616Z,137.26
2023-04-18T05:37:59.732Z,145.36
2023-04-18T05:38:59.761Z,153.68
2023-04-18T05:40:00.736Z,158.84
2023-04-18T05:40:59.767Z,165.55
2023-04-18T05:41:59.785Z,170.93
2023-04-18T05:42:59.883Z,176.43
2023-04-18T05:44:05.401Z,181.62
2023-04-18T05:45:01.141Z,181.97
2023-04-18T05:45:59.884Z,182.96
2023-04-18T05:46:59.848Z,186.16
2023-04-18T05:47:59.903Z,193.64
2023-04-18T05:48:59.871Z,205.11
2023-04-18T05:49:59.857Z,211.69
2023-04-18T05:51:00.554Z,215.28
2023-04-18T05:51:59.862Z,216.63
2023-04-18T05:52:59.858Z,223.02
2023-04-18T05:53:59.944Z,228.39
2023-04-18T05:55:00.001Z,233.34
2023-04-18T05:56:00.073Z,234.09
2023-04-18T05:57:00.916Z,240.09
2023-04-18T05:58:00.187Z,245.16
2023-04-18T05:59:00.215Z,249.50
2023-04-18T06:00:00.291Z,250.00
2023-04-18T06:01:00.376Z,249.60
2023-04-18T06:02:00.466Z,250.00
2023-04-18T06:03:00.495Z,250.00
2023-04-18T06:04:00.705Z,248.19
2023-04-18T06:05:00.577Z,250.00
2023-04-18T06:06:00.560Z,250.00
2023-04-18T06:07:00.475Z,249.82
2023-04-18T06:08:00.493Z,249.82
2023-04-18T06:09:00.508Z,249.84
2023-04-18T06:10:00.509Z,250.00
2023-04-18T06:11:00.506Z,250.00
2023-04-18T06:12:00.495Z,250.00
2023-04-18T06:13:00.495Z,250.00
2023-04-18T06:14:00.494Z,249.80
2023-04-18T06:15:00.487Z,249.27
2023-04-18T06:16:00.541Z,250.00
2023-04-18T06:17:00.486Z,249.97
2023-04-18T06:18:00.496Z,250.00
2023-04-18T06:19:01.215Z,245.24
2023-04-18T06:20:00.501Z,243.67
2023-04-18T06:21:00.480Z,246.14
2023-04-18T06:22:00.507Z,246.86
2023-04-18T06:23:00.513Z,248.10
2023-04-18T06:24:00.466Z,247.73
2023-04-18T06:25:00.477Z,247.54
2023-04-18T06:26:02.120Z,248.03
2023-04-18T06:27:00.491Z,247.47
2023-04-18T06:28:00.450Z,248.40
2023-04-18T06:29:01.548Z,248.50
2023-04-18T06:30:00.532Z,248.51
2023-04-18T06:31:00.411Z,248.82
2023-04-18T06:32:01.202Z,248.54
2023-04-18T06:33:00.465Z,247.85
2023-04-18T06:34:00.380Z,247.70
2023-04-18T06:35:01.145Z,246.03
2023-04-18T06:36:00.357Z,246.27
2023-04-18T06:37:00.361Z,246.33
2023-04-18T06:38:00.354Z,246.01
2023-04-18T06:39:00.382Z,245.17
2023-04-18T06:40:00.344Z,244.49
2023-04-18T06:41:00.355Z,244.23
2023-04-18T06:42:00.336Z,243.96
2023-04-18T06:43:00.368Z,242.68
2023-04-18T06:44:04.283Z,242.59
2023-04-18T06:45:00.372Z,242.65
2023-04-18T06:46:00.400Z,242.65
2023-04-18T06:47:00.345Z,242.20
2023-04-18T06:48:00.372Z,242.85
2023-04-18T06:49:00.445Z,242.42
2023-04-18T06:50:00.364Z,241.08
2023-04-18T06:51:00.357Z,240.43
2023-04-18T06:52:00.364Z,240.52
2023-04-18T06:53:00.364Z,239.29
2023-04-18T06:54:00.354Z,239.42
2023-04-18T06:55:00.444Z,238.71
2023-04-18T06:56:00.371Z,238.46
2023-04-18T06:57:00.365Z,238.16
2023-04-18T06:58:00.359Z,237.66
2023-04-18T06:59:00.372Z,236.19
2023-04-18T07:00:00.366Z,235.91
2023-04-18T07:01:00.410Z,236.23
2023-04-18T07:02:00.400Z,234.41
2023-04-18T07:03:00.524Z,235.07
2023-04-18T07:04:00.532Z,234.48
2023-04-18T07:05:00.369Z,235.74
2023-04-18T07:06:00.396Z,233.70
2023-04-18T07:07:00.439Z,233.20
2023-04-18T07:08:00.396Z,232.44
2023-04-18T07:09:00.468Z,232.30
2023-04-18T07:10:00.527Z,231.70
2023-04-18T07:11:00.597Z,231.99
2023-04-18T07:12:00.652Z,231.67
2023-04-18T07:13:00.727Z,231.13
2023-04-18T07:14:00.776Z,229.37
2023-04-18T07:15:01.119Z,230.14
2023-04-18T07:16:00.897Z,229.71
2023-04-18T07:17:01.003Z,229.81
2023-04-18T07:18:01.074Z,227.78
2023-04-18T07:19:01.113Z,227.84
2023-04-18T07:20:01.163Z,224.33
2023-04-18T07:21:01.247Z,224.73
2023-04-18T07:22:01.305Z,225.12
2023-04-18T07:23:01.338Z,226.14
2023-04-18T07:24:01.376Z,228.51
2023-04-18T07:25:01.442Z,231.03
2023-04-18T07:26:01.420Z,230.85
2023-04-18T07:27:01.517Z,232.89
2023-04-18T07:28:01.516Z,233.80
2023-04-18T07:29:01.457Z,235.02
2023-04-18T07:30:01.456Z,237.62
2023-04-18T07:31:02.199Z,238.98
2023-04-18T07:32:01.446Z,240.27
2023-04-18T07:33:01.521Z,243.86
2023-04-18T07:34:01.467Z,246.96
2023-04-18T07:35:01.526Z,248.00
2023-04-18T07:36:01.539Z,249.41
2023-04-18T07:37:01.508Z,249.94
2023-04-18T07:38:01.548Z,248.48
2023-04-18T07:39:01.609Z,249.12
2023-04-18T07:40:01.770Z,250.00
2023-04-18T07:41:01.697Z,250.00
2023-04-18T07:42:01.757Z,248.27
2023-04-18T07:43:01.817Z,249.62
2023-04-18T07:44:01.964Z,249.71
2023-04-18T07:45:01.919Z,250.00
2023-04-18T07:46:02.067Z,248.81
2023-04-18T07:47:02.058Z,249.34
2023-04-18T07:48:02.150Z,249.36
2023-04-18T07:49:02.363Z,249.85
2023-04-18T07:50:02.190Z,250.00
2023-04-18T07:51:02.239Z,249.67
2023-04-18T07:52:02.299Z,249.57
2023-04-18T07:53:02.380Z,249.90
2023-04-18T07:54:02.377Z,249.46
2023-04-18T07:55:02.414Z,249.77
2023-04-18T07:56:02.460Z,249.76
2023-04-18T07:57:02.501Z,250.00
2023-04-18T07:58:02.552Z,249.78
2023-04-18T07:59:02.631Z,249.62
2023-04-18T08:00:02.679Z,250.00
2023-04-18T08:01:02.657Z,250.00
2023-04-18T08:02:02.786Z,250.00
2023-04-18T08:03:03.002Z,249.35
2023-04-18T08:04:02.960Z,249.89
2023-04-18T08:05:03.074Z,249.01
2023-04-18T08:06:03.183Z,248.17
2023-04-18T08:07:02.886Z,249.05
2023-04-18T08:08:02.906Z,248.95
2023-04-18T08:09:02.937Z,250.25
2023-04-18T08:10:03.674Z,247.97
2023-04-18T08:11:03.021Z,249.08
2023-04-18T08:12:03.061Z,247.37
2023-04-18T08:13:03.107Z,246.90
2023-04-18T08:14:03.149Z,247.23
2023-04-18T08:15:03.181Z,247.34
2023-04-18T08:16:03.266Z,249.22
2023-04-18T08:17:03.315Z,248.78
2023-04-18T08:18:03.398Z,248.17
2023-04-18T08:19:03.370Z,232.72
2023-04-18T08:20:03.324Z,214.60
2023-04-18T08:21:03.369Z,202.45
2023-04-18T08:22:03.382Z,149.60
2023-04-18T08:23:07.921Z,151.81
2023-04-18T08:24:04.415Z,152.01
2023-04-18T08:25:05.537Z,145.43
2023-04-18T08:26:03.488Z,139.42
2023-04-18T08:27:03.440Z,147.47
2023-04-18T08:28:03.455Z,146.59
2023-04-18T08:29:03.468Z,145.98
2023-04-18T08:30:03.477Z,145.16
2023-04-18T08:31:03.480Z,143.77
2023-04-18T08:32:03.603Z,144.73
2023-04-18T08:33:03.598Z,143.72
2023-04-18T08:34:05.120Z,146.22
2023-04-18T08:35:03.640Z,147.67
2023-04-18T08:36:03.650Z,148.06
2023-04-18T08:37:03.687Z,151.31
2023-04-18T08:38:03.715Z,150.96
2023-04-18T08:39:03.772Z,152.36
2023-04-18T08:40:03.823Z,154.70
2023-04-18T08:41:03.864Z,153.82
2023-04-18T08:42:03.919Z,157.55
2023-04-18T08:43:04.198Z,159.50
2023-04-18T08:44:03.999Z,161.51
2023-04-18T08:45:04.035Z,160.97
2023-04-18T08:46:04.163Z,164.18
2023-04-18T08:47:04.083Z,167.83
2023-04-18T08:48:04.151Z,168.27
2023-04-18T08:49:04.130Z,170.61
2023-04-18T08:50:04.154Z,174.22
2023-04-18T08:51:04.164Z,176.05
2023-04-18T08:52:04.204Z,178.99
2023-04-18T08:53:04.209Z,181.16
2023-04-18T08:54:04.211Z,183.11
2023-04-18T08:55:04.265Z,186.43
2023-04-18T08:56:04.694Z,186.16
2023-04-18T08:57:04.260Z,189.45
2023-04-18T08:58:04.288Z,190.19
2023-04-18T08:59:04.279Z,191.22
2023-04-18T09:00:04.289Z,194.14
2023-04-18T09:01:04.457Z,196.99
2023-04-18T09:02:04.332Z,199.64
2023-04-18T09:03:04.440Z,200.27
2023-04-18T09:04:04.300Z,203.34
2023-04-18T09:05:04.286Z,204.58
2023-04-18T09:06:04.293Z,206.57
2023-04-18T09:07:04.547Z,209.94
2023-04-18T09:08:04.253Z,211.55
2023-04-18T09:09:04.244Z,213.38
2023-04-18T09:10:04.251Z,216.75
2023-04-18T09:11:04.236Z,216.46
2023-04-18T09:12:04.214Z,216.92
2023-04-18T09:13:04.215Z,220.06
2023-04-18T09:14:04.194Z,220.39
2023-04-18T09:15:04.263Z,224.21
2023-04-18T09:16:04.189Z,227.27
2023-04-18T09:17:04.183Z,222.16
2023-04-18T09:18:04.191Z,161.65
2023-04-18T09:19:05.783Z,172.52
2023-04-18T09:20:04.438Z,151.14
2023-04-18T09:21:04.488Z,138.96
2023-04-18T09:22:04.550Z,135.91
2023-04-18T09:23:04.631Z,124.60
2023-04-18T09:24:04.643Z,111.32
2023-04-18T09:25:04.702Z,102.59
2023-04-18T09:26:04.719Z,101.54
2023-04-18T09:27:04.778Z,101.10
2023-04-18T09:28:04.811Z,99.08
2023-04-18T09:29:04.847Z,100.75
2023-04-18T09:30:04.873Z,101.75
2023-04-18T09:31:04.951Z,104.61
2023-04-18T09:32:04.951Z,104.63
2023-04-18T09:33:04.974Z,105.41
2023-04-18T09:34:04.934Z,110.48
2023-04-18T09:35:05.103Z,111.35
2023-04-18T09:36:04.968Z,112.97
2023-04-18T09:37:04.976Z,116.23
2023-04-18T09:38:04.936Z,118.42
2023-04-18T09:39:04.946Z,123.27
2023-04-18T09:40:04.925Z,126.05
2023-04-18T09:41:04.913Z,127.62
2023-04-18T09:42:04.900Z,128.41
2023-04-18T09:43:04.893Z,129.30
2023-04-18T09:44:04.867Z,133.19
2023-04-18T09:45:04.910Z,132.84
2023-04-18T09:46:04.827Z,138.21
2023-04-18T09:47:04.798Z,140.77
2023-04-18T09:48:04.881Z,143.75
2023-04-18T09:49:04.740Z,146.00
2023-04-18T09:50:04.790Z,149.63
2023-04-18T09:51:04.693Z,150.39
2023-04-18T09:52:04.659Z,153.68
2023-04-18T09:53:04.671Z,156.66
2023-04-18T09:54:04.731Z,157.70
2023-04-18T09:55:04.643Z,159.78
2023-04-18T09:56:04.705Z,161.47
2023-04-18T09:57:04.608Z,164.63
2023-04-18T09:58:04.643Z,166.38
2023-04-18T09:59:04.539Z,169.00
2023-04-18T10:00:04.531Z,170.57
2023-04-18T10:01:04.549Z,174.61
2023-04-18T10:02:04.640Z,176.65
2023-04-18T10:03:04.561Z,177.69
2023-04-18T10:04:04.612Z,179.04
2023-04-18T10:05:04.619Z,182.22
2023-04-18T10:06:04.572Z,183.67
2023-04-18T10:07:04.589Z,185.25
2023-04-18T10:08:04.669Z,187.33
2023-04-18T10:09:04.695Z,190.57
2023-04-18T10:10:04.694Z,191.87
2023-04-18T10:11:04.659Z,195.82
2023-04-18T10:12:04.633Z,196.90
2023-04-18T10:13:04.586Z,198.74
2023-04-18T10:14:04.567Z,196.51
2023-04-18T10:15:04.570Z,182.55
2023-04-18T10:16:04.616Z,149.69
2023-04-18T10:17:04.568Z,152.04
2023-04-18T10:18:06.073Z,138.67
2023-04-18T10:19:04.548Z,135.75
2023-04-18T10:20:04.553Z,134.52
2023-04-18T10:21:04.540Z,101.22
2023-04-18T10:22:05.228Z,105.84
2023-04-18T10:23:04.577Z,102.29
2023-04-18T10:24:05.226Z,100.04
2023-04-18T10:25:04.510Z,99.24
2023-04-18T10:26:04.557Z,98.65
2023-04-18T10:27:04.476Z,91.05
2023-04-18T10:28:05.148Z,88.38
2023-04-18T10:29:05.155Z,83.93
2023-04-18T10:30:04.464Z,82.74
2023-04-18T10:31:04.451Z,75.97
2023-04-18T10:32:04.450Z,73.11
2023-04-18T10:33:05.774Z,65.93
2023-04-18T10:34:05.975Z,66.07
2023-04-18T10:35:04.359Z,63.25
2023-04-18T10:36:04.346Z,60.83
2023-04-18T10:37:04.308Z,55.08
2023-04-18T10:38:04.263Z,45.43
2023-04-18T10:39:04.333Z,47.00
2023-04-18T10:40:04.199Z,49.99
2023-04-18T10:41:04.172Z,50.06
2023-04-18T10:42:04.149Z,54.76
2023-04-18T10:43:04.145Z,56.30
2023-04-18T10:44:04.300Z,57.56
2023-04-18T10:45:04.661Z,63.86
2023-04-18T10:46:04.014Z,65.11
2023-04-18T10:47:04.015Z,68.70
2023-04-18T10:48:04.796Z,70.97
2023-04-18T10:49:03.931Z,72.60
2023-04-18T10:50:06.281Z,74.83
2023-04-18T10:51:03.866Z,82.08
2023-04-18T10:52:03.828Z,84.98
2023-04-18T10:53:03.790Z,87.73
2023-04-18T10:54:03.752Z,89.66
2023-04-18T10:55:03.715Z,91.16
2023-04-18T10:56:03.694Z,96.58
2023-04-18T10:57:03.654Z,97.51
2023-04-18T10:58:03.631Z,100.33
2023-04-18T10:59:03.570Z,101.77
2023-04-18T11:00:03.539Z,107.42
2023-04-18T11:01:03.556Z,107.81
2023-04-18T11:02:03.508Z,113.41
2023-04-18T11:03:03.613Z,117.81
2023-04-18T11:04:03.464Z,115.80
2023-04-18T11:05:03.369Z,118.63
2023-04-18T11:06:03.352Z,120.18
2023-04-18T11:07:03.318Z,120.39
2023-04-18T11:08:03.275Z,121.85
2023-04-18T11:09:03.255Z,122.83
2023-04-18T11:10:03.225Z,124.05
2023-04-18T11:11:03.175Z,125.37
2023-04-18T11:12:03.137Z,126.50
2023-04-18T11:13:03.113Z,126.20
2023-04-18T11:14:03.081Z,127.47
2023-04-18T11:15:03.165Z,128.80
2023-04-18T11:16:03.058Z,129.25
2023-04-18T11:17:02.990Z,131.28
2023-04-18T11:18:03.005Z,128.33
2023-04-18T11:19:02.940Z,130.35
2023-04-18T11:20:02.929Z,130.75
2023-04-18T11:21:02.957Z,130.24
2023-04-18T11:22:02.881Z,132.17
2023-04-18T11:23:02.822Z,131.58
2023-04-18T11:24:02.805Z,131.91
2023-04-18T11:25:03.902Z,133.00
2023-04-18T11:26:02.771Z,132.73
2023-04-18T11:27:02.716Z,133.31
2023-04-18T11:28:02.697Z,132.87
2023-04-18T11:29:02.662Z,132.68
2023-04-18T11:30:02.719Z,133.18
2023-04-18T11:31:02.764Z,132.77
2023-04-18T11:32:02.689Z,133.84
2023-04-18T11:33:02.603Z,131.42
2023-04-18T11:34:02.549Z,132.83
2023-04-18T11:35:02.511Z,133.07
2023-04-18T11:36:02.551Z,133.67
2023-04-18T11:37:02.761Z,132.09
2023-04-18T11:38:02.431Z,131.58
2023-04-18T11:39:02.429Z,134.72
2023-04-18T11:40:02.401Z,132.00
2023-04-18T11:41:02.370Z,133.99
2023-04-18T11:42:02.794Z,132.45
2023-04-18T11:43:02.397Z,131.99
2023-04-18T11:44:02.305Z,131.97
2023-04-18T11:45:02.278Z,132.57
2023-04-18T11:46:02.278Z,131.44
2023-04-18T11:47:02.274Z,131.63
2023-04-18T11:48:02.218Z,129.89
2023-04-18T11:49:02.153Z,132.13
2023-04-18T11:50:02.154Z,133.16
2023-04-18T11:51:02.092Z,132.35
2023-04-18T11:52:02.145Z,132.13
2023-04-18T11:53:02.040Z,129.85
2023-04-18T11:54:02.010Z,130.13
2023-04-18T11:55:01.986Z,129.63
2023-04-18T11:56:02.003Z,128.72
2023-04-18T11:57:02.018Z,130.82
2023-04-18T11:58:02.008Z,129.05
2023-04-18T11:59:01.992Z,127.67
2023-04-18T12:00:02.000Z,130.00
2023-04-18T12:01:01.997Z,130.11
2023-04-18T12:02:08.878Z,129.63
2023-04-18T12:03:03.084Z,129.72
2023-04-18T12:04:02.327Z,129.73
2023-04-18T12:05:02.374Z,128.60
2023-04-18T12:06:01.945Z,129.45
2023-04-18T12:07:01.855Z,128.01
2023-04-18T12:08:01.830Z,126.07
2023-04-18T12:09:01.783Z,127.82
2023-04-18T12:10:01.773Z,126.47
2023-04-18T12:11:01.749Z,126.59
2023-04-18T12:12:01.691Z,126.34
2023-04-18T12:13:01.671Z,125.78
2023-04-18T12:14:03.616Z,126.10
2023-04-18T12:15:01.638Z,124.54
2023-04-18T12:16:01.654Z,125.50
2023-04-18T12:17:01.611Z,124.99
2023-04-18T12:18:01.638Z,122.03
2023-04-18T12:19:01.608Z,123.34
2023-04-18T12:20:01.526Z,124.73
2023-04-18T12:21:01.502Z,123.55
2023-04-18T12:22:01.499Z,122.48
2023-04-18T12:23:01.482Z,122.51
2023-04-18T12:24:01.455Z,121.75
2023-04-18T12:25:01.380Z,121.19
2023-04-18T12:26:01.404Z,121.45
2023-04-18T12:27:01.358Z,122.80
2023-04-18T12:28:01.329Z,121.23
2023-04-18T12:29:01.290Z,122.41
2023-04-18T12:30:01.913Z,122.64
2023-04-18T12:31:01.257Z,122.57
2023-04-18T12:32:01.301Z,121.60
2023-04-18T12:33:01.182Z,121.59
2023-04-18T12:34:01.146Z,120.97
2023-04-18T12:35:01.998Z,119.96
2023-04-18T12:36:01.070Z,120.73
2023-04-18T12:37:01.053Z,119.52
2023-04-18T12:38:01.050Z,119.50
2023-04-18T12:39:01.060Z,118.85
2023-04-18T12:40:01.066Z,118.67